createdAt,value
2022-12-20T00:01:11.433Z,101243.06
2022-12-20T00:03:39.789Z,101245.78
2022-12-20T00:06:07.931Z,101240.66
2022-12-20T00:08:36.554Z,101230.53
2022-12-20T00:11:06.206Z,101228.25
2022-12-20T00:13:35.771Z,101228.31
2022-12-20T00:16:09.143Z,101233.66
2022-12-20T00:18:38.244Z,101234.28
2022-12-20T00:21:07.725Z,101241.59
2022-12-20T00:23:36.181Z,101241.03
2022-12-20T00:26:05.710Z,101225.75
2022-12-20T00:28:36.029Z,101243.53
2022-12-20T00:31:05.472Z,101239.91
2022-12-20T00:33:35.246Z,101219.91
2022-12-20T00:36:03.177Z,101235.84
2022-12-20T00:38:30.990Z,101236.59
2022-12-20T00:41:02.918Z,101226.00
2022-12-20T00:43:31.218Z,101220.97
2022-12-20T00:46:01.167Z,101225.25
2022-12-20T00:48:31.310Z,101219.22
2022-12-20T00:50:59.788Z,101220.63
2022-12-20T00:53:28.043Z,101219.09
2022-12-20T00:55:56.077Z,101229.13
2022-12-20T00:58:24.072Z,101222.00
2022-12-20T01:00:56.208Z,101218.53
2022-12-20T01:03:26.616Z,101213.50
2022-12-20T01:05:57.856Z,101203.81
2022-12-20T01:08:27.322Z,101229.56
2022-12-20T01:11:03.393Z,101215.59
2022-12-20T01:13:31.863Z,101231.09
2022-12-20T01:16:05.751Z,101203.34
2022-12-20T01:18:35.152Z,101217.44
2022-12-20T01:21:04.130Z,101209.06
2022-12-20T01:23:32.566Z,101225.25
2022-12-20T01:26:00.867Z,101221.78
2022-12-20T01:28:29.399Z,101219.47
2022-12-20T01:30:57.272Z,101220.69
2022-12-20T01:33:25.282Z,101225.19
2022-12-20T01:35:59.576Z,101224.59
2022-12-20T01:38:27.989Z,101221.38
2022-12-20T01:40:57.362Z,101203.34
2022-12-20T01:43:26.259Z,101210.34
2022-12-20T01:45:54.149Z,101215.25
2022-12-20T01:48:26.537Z,101205.78
2022-12-20T01:50:54.953Z,101207.88
2022-12-20T01:53:25.430Z,101202.22
2022-12-20T01:55:54.808Z,101199.16
2022-12-20T01:58:23.809Z,101197.28
2022-12-20T02:00:51.777Z,101197.75
2022-12-20T02:03:19.616Z,101185.78
2022-12-20T02:05:47.810Z,101191.22
2022-12-20T02:08:19.825Z,101176.06
2022-12-20T02:11:03.886Z,101177.94
2022-12-20T02:13:43.144Z,101184.13
2022-12-20T02:16:15.958Z,101170.53
2022-12-20T02:18:53.827Z,101165.84
2022-12-20T02:21:32.360Z,101158.88
2022-12-20T02:24:41.549Z,101164.31
2022-12-20T02:27:30.723Z,101153.28
2022-12-20T02:30:14.347Z,101185.22
2022-12-20T02:32:50.083Z,101168.31
2022-12-20T02:35:22.925Z,101164.19
2022-12-20T02:37:52.493Z,101172.50
2022-12-20T02:40:25.617Z,101158.75
2022-12-20T02:42:57.580Z,101166.16
2022-12-20T02:45:33.875Z,101157.84
2022-12-20T02:48:06.028Z,101149.38
2022-12-20T02:50:39.152Z,101154.06
2022-12-20T02:53:08.518Z,101157.44
2022-12-20T02:55:43.801Z,101153.53
2022-12-20T02:58:19.041Z,101150.81
2022-12-20T03:00:51.646Z,101140.75
2022-12-20T03:03:25.308Z,101147.75
2022-12-20T03:05:56.209Z,101142.41
2022-12-20T03:08:25.193Z,101150.56
2022-12-20T03:10:54.391Z,101142.72
2022-12-20T03:13:23.224Z,101127.69
2022-12-20T03:16:05.703Z,101137.19
2022-12-20T03:18:33.649Z,101153.66
2022-12-20T03:21:01.576Z,101148.06
2022-12-20T03:23:29.346Z,101151.56
2022-12-20T03:25:57.317Z,101143.28
2022-12-20T03:28:32.449Z,101132.59
2022-12-20T03:31:00.687Z,101140.66
2022-12-20T03:33:29.914Z,101134.00
2022-12-20T03:36:00.936Z,101138.38
2022-12-20T03:38:28.775Z,101138.25
2022-12-20T03:40:56.662Z,101142.25
2022-12-20T03:43:24.463Z,101125.34
2022-12-20T03:45:52.525Z,101136.91
2022-12-20T03:48:20.841Z,101119.78
2022-12-20T03:50:50.467Z,101117.06
2022-12-20T03:53:18.262Z,101127.41
2022-12-20T03:55:46.154Z,101130.44
2022-12-20T03:58:14.894Z,101127.28
2022-12-20T04:00:42.769Z,101116.25
2022-12-20T04:03:33.367Z,101109.50
2022-12-20T04:06:02.607Z,101098.59
2022-12-20T04:08:30.376Z,101104.69
2022-12-20T04:11:15.717Z,101094.09
2022-12-20T04:13:50.763Z,101088.06
2022-12-20T04:16:21.599Z,101088.25
2022-12-20T04:18:49.623Z,101095.84
2022-12-20T04:21:22.984Z,101086.94
2022-12-20T04:23:52.870Z,101096.50
2022-12-20T04:26:21.766Z,101085.00
2022-12-20T04:28:50.327Z,101080.19
2022-12-20T04:31:23.551Z,101081.16
2022-12-20T04:33:53.362Z,101079.06
2022-12-20T04:36:23.316Z,101076.63
2022-12-20T04:38:53.980Z,101067.25
2022-12-20T04:41:24.846Z,101071.81
2022-12-20T04:43:59.553Z,101077.16
2022-12-20T04:46:35.499Z,101078.97
2022-12-20T04:49:04.333Z,101083.41
2022-12-20T04:51:36.412Z,101079.47
2022-12-20T04:54:04.902Z,101090.84
2022-12-20T04:56:40.704Z,101089.59
2022-12-20T04:59:15.186Z,101086.53
2022-12-20T05:01:45.750Z,101080.53
2022-12-20T05:04:18.327Z,101067.41
2022-12-20T05:06:47.455Z,101065.19
2022-12-20T05:09:15.594Z,101060.56
2022-12-20T05:11:43.393Z,101058.41
2022-12-20T05:14:11.309Z,101065.06
2022-12-20T05:16:39.212Z,101061.59
2022-12-20T05:19:07.822Z,101053.41
2022-12-20T05:21:57.398Z,101061.13
2022-12-20T05:24:43.970Z,101045.56
2022-12-20T05:27:23.660Z,101069.63
2022-12-20T05:29:51.475Z,101045.56
2022-12-20T05:32:19.193Z,101044.44
2022-12-20T05:34:46.985Z,101026.28
2022-12-20T05:37:16.744Z,101039.91
2022-12-20T05:39:46.447Z,101033.56
2022-12-20T05:42:19.772Z,101030.41
2022-12-20T05:44:50.378Z,101025.69
2022-12-20T05:47:18.391Z,101039.53
2022-12-20T05:49:46.454Z,101023.50
2022-12-20T05:52:14.475Z,101017.16
2022-12-20T05:54:43.079Z,101021.72
2022-12-20T05:57:16.073Z,101026.41
2022-12-20T05:59:43.959Z,101016.56
2022-12-20T06:02:17.903Z,100997.06
2022-12-20T06:04:48.477Z,100998.13
2022-12-20T06:07:22.927Z,101000.88
2022-12-20T06:09:55.104Z,100989.53
2022-12-20T06:12:28.889Z,100972.72
2022-12-20T06:14:57.279Z,100967.88
2022-12-20T06:17:25.213Z,100977.44
2022-12-20T06:19:54.019Z,100986.06
2022-12-20T06:22:21.782Z,100988.34
2022-12-20T06:24:53.627Z,100980.03
2022-12-20T06:27:27.823Z,100982.31
2022-12-20T06:30:21.806Z,100991.13
2022-12-20T06:33:09.786Z,100990.97
2022-12-20T06:35:37.545Z,100991.28
2022-12-20T06:38:06.515Z,100995.88
2022-12-20T06:40:36.217Z,100996.94
2022-12-20T06:43:05.911Z,100995.28
2022-12-20T06:45:41.051Z,100989.38
2022-12-20T06:48:10.255Z,100986.50
2022-12-20T06:50:39.103Z,100988.03
2022-12-20T06:53:07.532Z,100970.00
2022-12-20T06:55:35.959Z,100982.00
2022-12-20T06:58:05.983Z,100990.19
2022-12-20T07:00:34.620Z,100993.34
2022-12-20T07:03:02.692Z,100996.72
2022-12-20T07:05:30.499Z,100983.38
2022-12-20T07:07:58.295Z,100985.97
2022-12-20T07:10:26.175Z,100987.78
2022-12-20T07:12:54.149Z,100993.09
2022-12-20T07:15:23.314Z,100991.75
2022-12-20T07:17:51.510Z,100991.75
2022-12-20T07:20:19.732Z,100994.94
2022-12-20T07:22:49.560Z,100996.00
2022-12-20T07:25:17.335Z,100990.56
2022-12-20T07:27:47.956Z,100996.19
2022-12-20T07:30:16.182Z,100993.91
2022-12-20T07:32:45.265Z,100981.03
2022-12-20T07:35:13.801Z,100999.25
2022-12-20T07:37:41.935Z,100994.88
2022-12-20T07:40:12.105Z,100991.66
2022-12-20T07:42:46.180Z,100995.94
2022-12-20T07:45:16.302Z,101005.63
2022-12-20T07:47:47.545Z,100994.28
2022-12-20T07:50:15.433Z,101001.22
2022-12-20T07:52:46.547Z,100978.81
2022-12-20T07:55:14.616Z,100997.91
2022-12-20T07:57:45.727Z,101008.22
2022-12-20T08:00:14.891Z,101009.22
2022-12-20T08:02:45.632Z,101014.97
2022-12-20T08:05:15.742Z,101011.28
2022-12-20T08:07:46.660Z,101000.06
2022-12-20T08:10:17.424Z,101013.25
2022-12-20T08:12:46.190Z,101014.63
2022-12-20T08:15:14.343Z,101012.19
2022-12-20T08:17:42.102Z,100992.22
2022-12-20T08:20:10.372Z,101002.69
2022-12-20T08:22:39.489Z,101007.69
2022-12-20T08:25:08.467Z,100997.56
2022-12-20T08:27:36.503Z,100999.06
2022-12-20T08:30:04.837Z,101002.22
2022-12-20T08:32:32.637Z,100998.44
2022-12-20T08:35:00.546Z,100998.16
2022-12-20T08:37:28.353Z,100991.91
2022-12-20T08:39:57.418Z,100992.69
2022-12-20T08:42:25.188Z,101000.56
2022-12-20T08:44:52.981Z,100998.31
2022-12-20T08:47:20.877Z,100992.69
2022-12-20T08:49:48.611Z,101001.34
2022-12-20T08:52:16.693Z,100984.97
2022-12-20T08:54:44.437Z,100991.50
2022-12-20T08:57:13.657Z,100983.75
2022-12-20T08:59:41.399Z,100994.50
2022-12-20T09:02:09.384Z,101000.69
2022-12-20T09:04:37.276Z,101002.75
2022-12-20T09:07:05.219Z,100995.13
2022-12-20T09:09:33.043Z,100994.03
2022-12-20T09:12:00.812Z,100998.56
2022-12-20T09:14:29.970Z,100994.88
2022-12-20T09:16:57.819Z,101000.44
2022-12-20T09:19:25.652Z,100991.03
2022-12-20T09:21:55.423Z,100998.56
2022-12-20T09:24:23.301Z,100994.03
2022-12-20T09:26:52.216Z,100990.97
2022-12-20T09:29:27.057Z,101000.16
2022-12-20T09:31:57.591Z,100999.09
2022-12-20T09:34:25.420Z,101000.75
2022-12-20T09:36:53.642Z,100993.59
2022-12-20T09:39:22.045Z,100995.56
2022-12-20T09:41:50.343Z,100986.75
2022-12-20T09:44:21.644Z,100991.56
2022-12-20T09:46:56.475Z,101009.13
2022-12-20T09:49:30.507Z,101007.28
2022-12-20T09:52:19.835Z,101013.91
2022-12-20T09:54:57.802Z,100994.53
2022-12-20T09:57:33.237Z,100996.50
2022-12-20T10:00:01.085Z,101002.41
2022-12-20T10:05:26.407Z,101012.53
2022-12-20T10:08:03.789Z,101005.13
2022-12-20T10:10:52.509Z,101003.59
2022-12-20T10:13:29.240Z,100995.00
2022-12-20T10:16:02.408Z,100999.38
2022-12-20T10:18:47.347Z,101000.88
2022-12-20T10:21:22.153Z,100988.00
2022-12-20T10:24:01.043Z,100987.56
2022-12-20T10:26:29.629Z,100980.16
2022-12-20T10:28:57.445Z,100992.13
2022-12-20T10:31:25.397Z,100992.44
2022-12-20T10:33:53.280Z,100996.72
2022-12-20T10:36:26.873Z,100991.56
2022-12-20T10:38:56.100Z,100986.09
2022-12-20T10:41:26.226Z,100983.69
2022-12-20T10:43:58.631Z,100981.28
2022-12-20T10:46:38.972Z,100991.00
2022-12-20T10:49:28.391Z,100981.28
2022-12-20T10:52:00.306Z,100974.34
2022-12-20T10:54:31.969Z,100971.16
2022-12-20T10:57:02.006Z,100986.44
2022-12-20T10:59:35.167Z,100976.59
2022-12-20T11:02:23.130Z,100968.00
2022-12-20T11:05:00.001Z,100968.00
2022-12-20T11:07:31.782Z,100953.94
2022-12-20T11:10:01.171Z,100957.41
2022-12-20T11:12:29.398Z,100959.25
2022-12-20T11:15:10.312Z,100958.94
2022-12-20T11:17:41.835Z,100945.63
2022-12-20T11:20:30.580Z,100956.84
2022-12-20T11:23:12.830Z,100947.59
2022-12-20T11:25:54.933Z,100945.94
2022-12-20T11:28:40.298Z,100948.22
2022-12-20T11:31:16.746Z,100936.09
2022-12-20T11:34:03.351Z,100950.81
2022-12-20T11:36:47.085Z,100931.72
2022-12-20T11:39:27.051Z,100946.44
2022-12-20T11:42:04.785Z,100940.22
2022-12-20T11:44:58.002Z,100940.53
2022-12-20T11:47:46.887Z,100941.28
2022-12-20T11:50:34.166Z,100939.34
2022-12-20T11:53:08.774Z,100932.69
2022-12-20T11:55:42.287Z,100938.13
2022-12-20T11:58:19.456Z,100932.69
2022-12-20T12:00:54.836Z,100930.28
2022-12-20T12:03:31.501Z,100927.22
2022-12-20T12:06:04.643Z,100941.19
2022-12-20T12:08:41.361Z,100935.72
2022-12-20T12:11:55.673Z,100933.00
2022-12-20T12:14:06.988Z,100919.69
2022-12-20T12:16:38.951Z,100931.66
2022-12-20T12:19:10.345Z,100937.44
2022-12-20T12:21:43.947Z,100925.31
2022-12-20T12:24:21.316Z,100931.97
2022-12-20T12:26:50.701Z,100922.25
2022-12-20T12:29:20.477Z,100913.22
2022-12-20T12:31:54.911Z,100910.66
2022-12-20T12:34:37.333Z,100918.50
2022-12-20T12:37:23.466Z,100913.81
2022-12-20T12:40:13.489Z,100918.06
2022-12-20T12:43:05.077Z,100910.66
2022-12-20T12:45:38.702Z,100915.66
2022-12-20T12:48:14.644Z,100922.63
2022-12-20T12:50:46.898Z,100917.59
2022-12-20T12:53:17.277Z,100927.00
2022-12-20T12:55:47.380Z,100929.72
2022-12-20T12:58:46.517Z,100940.94
2022-12-20T13:01:48.789Z,100938.22
2022-12-20T13:04:27.610Z,100930.81
2022-12-20T13:06:59.084Z,100923.38
2022-12-20T13:09:43.637Z,100928.81
2022-12-20T13:12:51.334Z,100926.84
2022-12-20T13:16:07.057Z,100924.59
2022-12-20T13:18:34.861Z,100919.47
2022-12-20T13:21:39.521Z,100920.97
2022-12-20T13:24:50.423Z,100923.25
2022-12-20T13:27:33.979Z,100922.03
2022-12-20T13:30:31.535Z,100915.81
2022-12-20T13:33:20.449Z,100918.88
2022-12-20T13:36:00.661Z,100914.91
2022-12-20T13:38:56.677Z,100918.88
2022-12-20T13:41:35.573Z,100922.03
2022-12-20T13:44:32.391Z,100924.00
2022-12-20T13:47:07.622Z,100919.31
2022-12-20T13:49:39.881Z,100917.81
2022-12-20T13:52:24.085Z,100922.78
2022-12-20T13:54:56.640Z,100919.63
2022-12-20T13:57:30.459Z,100913.09
2022-12-20T14:00:06.845Z,100906.91
2022-12-20T14:02:37.408Z,100923.69
2022-12-20T14:05:14.618Z,100921.72
2022-12-20T14:07:43.514Z,100920.53
2022-12-20T14:10:21.866Z,100919.78
2022-12-20T14:12:53.733Z,100918.56
2022-12-20T14:15:27.502Z,100915.38
2022-12-20T14:17:55.721Z,100909.47
2022-12-20T14:20:31.424Z,100918.88
2022-12-20T14:23:06.029Z,100910.69
2022-12-20T14:25:43.649Z,100925.06
2022-12-20T14:28:26.537Z,100915.69
2022-12-20T14:30:55.586Z,100924.00
2022-12-20T14:33:33.566Z,100922.78
2022-12-20T14:36:11.646Z,100920.06
2022-12-20T14:38:41.350Z,100928.25
2022-12-20T14:41:35.778Z,100921.72
2022-12-20T14:44:14.244Z,100924.44
2022-12-20T14:46:49.183Z,100918.69
2022-12-20T14:49:22.402Z,100925.34
2022-12-20T14:51:52.767Z,100914.88
2022-12-20T14:55:05.187Z,100915.66
2022-12-20T14:57:21.158Z,100901.25
2022-12-20T15:00:00.812Z,100888.84
2022-12-20T15:02:37.213Z,100888.09
2022-12-20T15:05:10.639Z,100891.25
2022-12-20T15:07:42.637Z,100890.81
2022-12-20T15:10:10.443Z,100893.97
2022-12-20T15:12:42.116Z,100895.19
2022-12-20T15:15:28.593Z,100899.13
2022-12-20T15:17:57.361Z,100898.06
2022-12-20T15:20:25.250Z,100902.31
2022-12-20T15:22:54.456Z,100902.31
2022-12-20T15:25:22.280Z,100901.53
2022-12-20T15:27:50.389Z,100904.25
2022-12-20T15:30:19.049Z,100900.94
2022-12-20T15:32:55.287Z,100898.97
2022-12-20T15:35:24.806Z,100901.69
2022-12-20T15:37:54.038Z,100899.41
2022-12-20T15:40:21.944Z,100908.31
2022-12-20T15:42:49.746Z,100899.41
2022-12-20T15:45:17.772Z,100896.66
2022-12-20T15:47:45.577Z,100889.25
2022-12-20T15:50:13.683Z,100892.44
2022-12-20T15:52:41.869Z,100889.72
2022-12-20T15:55:12.933Z,100893.63
2022-12-20T15:57:40.940Z,100902.56
2022-12-20T16:00:10.991Z,100903.03
2022-12-20T16:02:41.845Z,100908.91
2022-12-20T16:05:13.614Z,100896.03
2022-12-20T16:07:41.623Z,100906.19
2022-12-20T16:10:15.506Z,100898.47
2022-12-20T16:12:43.601Z,100908.91
2022-12-20T16:15:21.610Z,100908.16
2022-12-20T16:17:49.491Z,100916.34
2022-12-20T16:20:17.363Z,100917.84
2022-12-20T16:22:45.406Z,100929.97
2022-12-20T16:25:25.715Z,100929.97
2022-12-20T16:27:53.831Z,100931.47
2022-12-20T16:30:22.376Z,100923.75
2022-12-20T16:32:50.716Z,100926.47
2022-12-20T16:35:27.478Z,100926.59
2022-12-20T16:37:57.037Z,100922.69
2022-12-20T16:40:29.153Z,100924.63
2022-12-20T16:43:04.770Z,100923.88
2022-12-20T16:45:34.478Z,100926.59
2022-12-20T16:48:02.280Z,100920.50
2022-12-20T16:50:30.122Z,100919.75
2022-12-20T16:52:57.887Z,100920.50
2022-12-20T16:55:30.252Z,100930.22
2022-12-20T16:58:00.779Z,100925.97
2022-12-20T17:00:28.680Z,100918.56
2022-12-20T17:02:57.706Z,100920.97
2022-12-20T17:05:28.628Z,100915.53
2022-12-20T17:07:57.310Z,100916.41
2022-12-20T17:10:28.298Z,100920.50
2022-12-20T17:12:56.158Z,100914.91
2022-12-20T17:15:26.236Z,100919.13
2022-12-20T17:17:54.815Z,100923.06
2022-12-20T17:20:24.776Z,100911.75
2022-12-20T17:22:54.405Z,100915.53
2022-12-20T17:25:25.861Z,100917.94
2022-12-20T17:27:55.628Z,100923.38
2022-12-20T17:30:24.243Z,100922.50
2022-12-20T17:32:53.315Z,100931.88
2022-12-20T17:35:24.871Z,100932.63
2022-12-20T17:37:55.718Z,100924.16
2022-12-20T17:40:25.368Z,100925.22
2022-12-20T17:42:53.291Z,100936.56
2022-12-20T17:45:26.004Z,100930.50
2022-12-20T17:47:54.412Z,100930.50
2022-12-20T17:50:24.401Z,100918.38
2022-12-20T17:52:53.089Z,100921.84
2022-12-20T17:55:23.415Z,100914.91
2022-12-20T17:57:51.424Z,100923.81
2022-12-20T18:00:24.935Z,100925.38
2022-12-20T18:02:53.756Z,100921.25
2022-12-20T18:05:22.524Z,100929.41
2022-12-20T18:07:52.295Z,100926.22
2022-12-20T18:10:20.804Z,100934.72
2022-12-20T18:12:48.667Z,100934.41
2022-12-20T18:15:19.115Z,100925.94
2022-12-20T18:17:48.454Z,100932.16
2022-12-20T18:20:17.322Z,100925.47
2022-12-20T18:22:45.092Z,100925.47
2022-12-20T18:25:13.933Z,100929.28
2022-12-20T18:27:43.062Z,100928.53
2022-12-20T18:30:13.184Z,100927.00
2022-12-20T18:32:41.331Z,100928.09
2022-12-20T18:35:11.556Z,100935.94
2022-12-20T18:37:39.546Z,100931.69
2022-12-20T18:40:09.209Z,100936.84
2022-12-20T18:42:37.071Z,100940.31
2022-12-20T18:45:05.452Z,100938.34
2022-12-20T18:47:33.315Z,100937.59
2022-12-20T18:50:01.130Z,100936.84
2022-12-20T18:52:30.286Z,100936.84
2022-12-20T18:54:58.225Z,100933.34
2022-12-20T18:57:26.175Z,100933.00
2022-12-20T18:59:54.006Z,100930.00
2022-12-20T19:02:22.068Z,100927.28
2022-12-20T19:04:50.047Z,100930.44
2022-12-20T19:07:17.839Z,100941.66
2022-12-20T19:09:46.943Z,100941.00
2022-12-20T19:12:14.752Z,100937.84
2022-12-20T19:14:42.512Z,100928.78
2022-12-20T19:17:10.398Z,100928.78
2022-12-20T19:19:38.275Z,100938.59
2022-12-20T19:22:06.099Z,100931.19
2022-12-20T19:24:33.862Z,100926.50
2022-12-20T19:27:04.238Z,100928.78
2022-12-20T19:29:32.005Z,100930.75
2022-12-20T19:31:59.752Z,100931.50
2022-12-20T19:34:27.574Z,100931.50
2022-12-20T19:36:55.361Z,100931.94
2022-12-20T19:39:23.646Z,100945.88
2022-12-20T19:42:22.391Z,100950.16
2022-12-20T19:44:41.649Z,100949.25
2022-12-20T19:47:09.475Z,100953.94
2022-12-20T19:49:37.254Z,100947.75
2022-12-20T19:52:06.018Z,100951.66
2022-12-20T19:54:33.940Z,100956.97
2022-12-20T19:57:01.785Z,100953.47
2022-12-20T19:59:30.645Z,100955.44
2022-12-20T20:02:00.019Z,100952.41
2022-12-20T20:04:28.473Z,100964.84
2022-12-20T20:06:57.357Z,100957.72
2022-12-20T20:09:25.349Z,100958.50
2022-12-20T20:11:53.171Z,100957.41
2022-12-20T20:14:21.574Z,100953.19
2022-12-20T20:16:49.483Z,100957.09
2022-12-20T20:19:18.917Z,100956.66
2022-12-20T20:21:48.716Z,100960.13
2022-12-20T20:24:16.842Z,100964.69
2022-12-20T20:26:44.695Z,100958.50
2022-12-20T20:29:12.538Z,100958.81
2022-12-20T20:31:40.383Z,100961.09
2022-12-20T20:34:09.824Z,100963.81
2022-12-20T20:36:39.368Z,100970.03
2022-12-20T20:39:07.453Z,100982.44
2022-12-20T20:41:35.345Z,100981.25
2022-12-20T20:44:03.103Z,100978.84
2022-12-20T20:46:31.029Z,100985.47
2022-12-20T20:48:59.322Z,100990.59
2022-12-20T20:51:27.141Z,100979.28
2022-12-20T20:53:56.261Z,100972.00
2022-12-20T20:56:24.125Z,100966.50
2022-12-20T20:58:53.530Z,100970.72
2022-12-20T21:01:23.336Z,100974.53
2022-12-20T21:03:51.289Z,100972.88
2022-12-20T21:09:08.416Z,100991.19
2022-12-20T21:11:36.995Z,100991.81
2022-12-20T21:14:05.129Z,100998.78
2022-12-20T21:16:33.100Z,101008.94
2022-12-20T21:19:00.995Z,101005.75
2022-12-20T21:21:28.951Z,101001.06
2022-12-20T21:23:56.884Z,101004.53
2022-12-20T21:26:26.248Z,101000.31
2022-12-20T21:28:57.551Z,100990.16
2022-12-20T21:31:25.525Z,100986.69
2022-12-20T21:33:53.355Z,100986.22
2022-12-20T21:36:21.189Z,100986.38
2022-12-20T21:38:50.217Z,100981.25
2022-12-20T21:41:19.964Z,100979.28
2022-12-20T21:43:49.179Z,100980.47
2022-12-20T21:46:17.261Z,100986.69
2022-12-20T21:49:02.307Z,100999.69
2022-12-20T21:51:31.387Z,100989.22
2022-12-20T21:54:01.299Z,100985.09
2022-12-20T21:56:32.303Z,100989.03
2022-12-20T21:59:02.335Z,100996.44
2022-12-20T22:01:31.027Z,100993.41
2022-12-20T22:04:01.329Z,100994.59
2022-12-20T22:06:29.516Z,100985.25
2022-12-20T22:08:58.813Z,100990.69
2022-12-20T22:11:27.110Z,100988.28
2022-12-20T22:13:56.556Z,100991.44
2022-12-20T22:16:29.096Z,100990.38
2022-12-20T22:18:58.214Z,100983.38
2022-12-20T22:21:27.573Z,100979.91
2022-12-20T22:23:55.743Z,100987.44
2022-12-20T22:26:25.897Z,100987.69
2022-12-20T22:29:02.505Z,100986.19
2022-12-20T22:31:32.061Z,100995.09
2022-12-20T22:34:00.832Z,100999.69
2022-12-20T22:36:29.189Z,100996.97
2022-12-20T22:38:58.152Z,100995.84
2022-12-20T22:41:28.652Z,101001.88
2022-12-20T22:43:58.425Z,100996.88
2022-12-20T22:46:29.072Z,100991.97
2022-12-20T22:48:59.013Z,101005.75
2022-12-20T22:51:27.933Z,101013.16
2022-12-20T22:53:58.130Z,101014.97
2022-12-20T22:56:26.023Z,101015.75
2022-12-20T22:58:53.834Z,101022.41
2022-12-20T23:01:22.786Z,101017.72
2022-12-20T23:03:50.719Z,101018.03
2022-12-20T23:06:21.660Z,101007.72
2022-12-20T23:08:50.116Z,100998.31
2022-12-20T23:11:38.121Z,100999.06
2022-12-20T23:14:23.912Z,101003.44
2022-12-20T23:16:52.145Z,101003.44
2022-12-20T23:19:20.002Z,101006.63
2022-12-20T23:22:06.445Z,101008.25
2022-12-20T23:24:34.206Z,101010.22
2022-12-20T23:27:02.101Z,101012.94
2022-12-20T23:29:30.803Z,101016.41
2022-12-20T23:31:58.690Z,101012.63
2022-12-20T23:34:26.616Z,101013.94
2022-12-20T23:36:55.732Z,101023.13
2022-12-20T23:39:23.538Z,101010.50
2022-12-20T23:41:51.725Z,101019.53
2022-12-20T23:44:19.478Z,101019.22
2022-12-20T23:46:47.244Z,101008.22
2022-12-20T23:49:15.024Z,101007.66
2022-12-20T23:51:42.810Z,101002.19
2022-12-20T23:54:12.277Z,101016.56
2022-12-20T23:56:40.074Z,101019.28
2022-12-20T23:59:08.227Z,101013.41
